European Causeway — C6RG7 — position and weather

sailwx.info

Track history (hours):
 
Tides and Currents Weather Stations Pressure Air Temp Water Temp Dewpoint Dewpoint Depression Visibility Wind Speed Wind Dir Waves Ship Positions

European Causeway

Operator: P & O Irish Sea

Last reported at 2020-Sep-28 03:00 UTC. Time now 2020-Sep-28 10:59 UTC.
Position N 54°51' W 005°48'.

Length 145 m; draft 5.5 m.

Type: Passenger vessel. MMSI: 311027000.

Date/timePositionNaut miles runAvg speedWind from/ knotsBaromVisibWave heightAir tempDewpointWater temp
2020-Sep-28 03:00N 54°51' W 005°48'0 0.0
2020-Sep-28 01:30N 54°51' W 005°48'0 0.0
2020-Sep-28 00:51N 54°51' W 005°48'11 4.0
2020-Sep-27 22:01N 54°56' W 005°31'11 1.4
2020-Sep-27 13:45N 54°51' W 005°48'0 0.0
2020-Sep-27 12:50N 54°51' W 005°48'7 1.3
2020-Sep-27 07:18N 54°54' W 005°37'7 1.5
2020-Sep-27 02:44N 54°51' W 005°48'0 0.0
2020-Sep-26 22:50N 54°51' W 005°48'0 0.0
2020-Sep-26 21:50N 54°51' W 005°48'7 0.5
2020-Sep-26 09:27N 54°54' W 005°38'7 2.7
2020-Sep-26 06:59N 54°51' W 005°48'0 0.0
2020-Sep-26 06:29N 54°51' W 005°48'0 0.0
2020-Sep-26 05:29N 54°51' W 005°48'22 4.4
2020-Sep-26 00:22N 55°01' W 005°13'1617.1
2020-Sep-25 23:26N 54°54' W 005°38'7 0.6
2020-Sep-25 13:02N 54°51' W 005°48'21 4.2
2020-Sep-25 08:10N 54°60' W 005°15'1417.4
2020-Sep-25 07:23N 54°54' W 005°37'715.2
2020-Sep-25 06:56N 54°51' W 005°48'0 0.1
2020-Sep-25 05:53N 54°51' W 005°48'19 9.7
2020-Sep-25 03:53N 54°60' W 005°18'3 0.9
2020-Sep-25 00:21N 55°01' W 005°12'23 2.4
2020-Sep-24 15:02N 54°51' W 005°48'0 0.0
2020-Sep-24 06:27N 54°51' W 005°48'0 0.0
2020-Sep-24 05:27N 54°51' W 005°48'0 0.0
2020-Sep-23 15:00N 54°51' W 005°48'0 0.0
2020-Sep-22 22:50N 54°51' W 005°48'8 1.1
2020-Sep-22 15:27N 54°54' W 005°35'12 3.1
2020-Sep-22 11:32N 55°00' W 005°16'7 1.9
2020-Sep-22 07:50N 54°57' W 005°27'1318.3
2020-Sep-22 07:08N 54°52' W 005°47'1 4.5
2020-Sep-22 06:56N 54°51' W 005°48'1 0.3
2020-Sep-22 04:58N 54°51' W 005°48'1616.8
2020-Sep-22 04:00N 54°59' W 005°23'17 3.3
2020-Sep-21 22:59N 54°51' W 005°48'13 1.9
2020-Sep-21 16:00N 54°56' W 005°27'13 6.6
2020-Sep-21 14:00N 54°51' W 005°48'21 3.7
2020-Sep-21 08:13N 55°01' W 005°15'1418.0
2020-Sep-21 07:26N 54°54' W 005°37'7 3.6
2020-Sep-21 05:25N 54°51' W 005°48'0 0.0
2020-Sep-20 19:26N 54°51' W 005°48'0 0.0
2020-Sep-20 18:53N 54°51' W 005°48'0 0.0
2020-Sep-20 17:56N 54°51' W 005°48'0 0.0
2020-Sep-20 17:29N 54°51' W 005°48'0 0.0
2020-Sep-20 16:56N 54°51' W 005°48'510.8
2020-Sep-20 16:30N 54°54' W 005°42'918.5
2020-Sep-20 16:00N 54°58' W 005°27'8 2.3
2020-Sep-20 12:30N 55°00' W 005°14'1019.8
2020-Sep-20 12:00N 54°56' W 005°29'1019.9
2020-Sep-20 11:30N 54°52' W 005°45'2 2.0
2020-Sep-20 10:30N 54°51' W 005°48'4 2.2
2020-Sep-20 08:30N 54°54' W 005°42'19 1.2
2020-Sep-19 16:30N 55°01' W 005°12'23 9.1
2020-Sep-19 14:00N 54°51' W 005°48'0 0.0
2020-Sep-19 10:55N 54°51' W 005°48'1616.2
2020-Sep-19 09:56N 54°58' W 005°23'11 2.0
2020-Sep-19 04:28N 55°01' W 005°05'27 8.9
2020-Sep-19 01:27N 54°51' W 005°48'2111.0
2020-Sep-18 23:30N 55°01' W 005°15'2 0.5
2020-Sep-18 19:59N 54°59' W 005°17'1919.1
2020-Sep-18 19:00N 54°52' W 005°47'1 0.1
2020-Sep-18 10:28N 54°51' W 005°48'28 5.1
2020-Sep-18 05:00N 54°58' W 005°01'  
Track history (hours):
 
Tides and Currents Weather Stations Pressure Air Temp Water Temp Dewpoint Dewpoint Depression Visibility Wind Speed Wind Dir Waves Ship Positions

European Causeway

Operator: P & O Irish Sea

Last reported at 2020-Sep-28 03:00 UTC. Time now 2020-Sep-28 10:59 UTC.
Position N 54°51' W 005°48'.

Length 145 m; draft 5.5 m.

Type: Passenger vessel. MMSI: 311027000.

Date/timePositionNaut miles runAvg speedWind from/ knotsBaromVisibWave heightAir tempDewpointWater temp
2020-Sep-28 03:00N 54°51' W 005°48'0 0.0
2020-Sep-28 01:30N 54°51' W 005°48'0 0.0
2020-Sep-28 00:51N 54°51' W 005°48'11 4.0
2020-Sep-27 22:01N 54°56' W 005°31'11 1.4
2020-Sep-27 13:45N 54°51' W 005°48'0 0.0
2020-Sep-27 12:50N 54°51' W 005°48'7 1.3
2020-Sep-27 07:18N 54°54' W 005°37'7 1.5
2020-Sep-27 02:44N 54°51' W 005°48'0 0.0
2020-Sep-26 22:50N 54°51' W 005°48'0 0.0
2020-Sep-26 21:50N 54°51' W 005°48'7 0.5
2020-Sep-26 09:27N 54°54' W 005°38'7 2.7
2020-Sep-26 06:59N 54°51' W 005°48'0 0.0
2020-Sep-26 06:29N 54°51' W 005°48'0 0.0
2020-Sep-26 05:29N 54°51' W 005°48'22 4.4
2020-Sep-26 00:22N 55°01' W 005°13'1617.1
2020-Sep-25 23:26N 54°54' W 005°38'7 0.6
2020-Sep-25 13:02N 54°51' W 005°48'21 4.2
2020-Sep-25 08:10N 54°60' W 005°15'1417.4
2020-Sep-25 07:23N 54°54' W 005°37'715.2
2020-Sep-25 06:56N 54°51' W 005°48'0 0.1
2020-Sep-25 05:53N 54°51' W 005°48'19 9.7
2020-Sep-25 03:53N 54°60' W 005°18'3 0.9
2020-Sep-25 00:21N 55°01' W 005°12'23 2.4
2020-Sep-24 15:02N 54°51' W 005°48'0 0.0
2020-Sep-24 06:27N 54°51' W 005°48'0 0.0
2020-Sep-24 05:27N 54°51' W 005°48'0 0.0
2020-Sep-23 15:00N 54°51' W 005°48'0 0.0
2020-Sep-22 22:50N 54°51' W 005°48'8 1.1
2020-Sep-22 15:27N 54°54' W 005°35'12 3.1
2020-Sep-22 11:32N 55°00' W 005°16'7 1.9
2020-Sep-22 07:50N 54°57' W 005°27'1318.3
2020-Sep-22 07:08N 54°52' W 005°47'1 4.5
2020-Sep-22 06:56N 54°51' W 005°48'1 0.3
2020-Sep-22 04:58N 54°51' W 005°48'1616.8
2020-Sep-22 04:00N 54°59' W 005°23'17 3.3
2020-Sep-21 22:59N 54°51' W 005°48'13 1.9
2020-Sep-21 16:00N 54°56' W 005°27'13 6.6
2020-Sep-21 14:00N 54°51' W 005°48'21 3.7
2020-Sep-21 08:13N 55°01' W 005°15'1418.0
2020-Sep-21 07:26N 54°54' W 005°37'7 3.6
2020-Sep-21 05:25N 54°51' W 005°48'0 0.0
2020-Sep-20 19:26N 54°51' W 005°48'0 0.0
2020-Sep-20 18:53N 54°51' W 005°48'0 0.0
2020-Sep-20 17:56N 54°51' W 005°48'0 0.0
2020-Sep-20 17:29N 54°51' W 005°48'0 0.0
2020-Sep-20 16:56N 54°51' W 005°48'510.8
2020-Sep-20 16:30N 54°54' W 005°42'918.5
2020-Sep-20 16:00N 54°58' W 005°27'8 2.3
2020-Sep-20 12:30N 55°00' W 005°14'1019.8
2020-Sep-20 12:00N 54°56' W 005°29'1019.9
2020-Sep-20 11:30N 54°52' W 005°45'2 2.0
2020-Sep-20 10:30N 54°51' W 005°48'4 2.2
2020-Sep-20 08:30N 54°54' W 005°42'19 1.2
2020-Sep-19 16:30N 55°01' W 005°12'23 9.1
2020-Sep-19 14:00N 54°51' W 005°48'0 0.0
2020-Sep-19 10:55N 54°51' W 005°48'1616.2
2020-Sep-19 09:56N 54°58' W 005°23'11 2.0
2020-Sep-19 04:28N 55°01' W 005°05'27 8.9
2020-Sep-19 01:27N 54°51' W 005°48'2111.0
2020-Sep-18 23:30N 55°01' W 005°15'2 0.5
2020-Sep-18 19:59N 54°59' W 005°17'1919.1
2020-Sep-18 19:00N 54°52' W 005°47'1 0.1
2020-Sep-18 10:28N 54°51' W 005°48'28 5.1
2020-Sep-18 05:00N 54°58' W 005°01'  

Dump ship's entire track history